Time;durP1;ratioP1;P1;durP2;ratioP2;P2;SDS_P1;SDS_P2;PMS_P1;PMS_P2;Temp;Humidity;BMP_temperature;BMP_pressure;BME280_temperature;BME280_humidity;BME280_pressure;Samples;Min_cycle;Max_cycle;Signal;HPM_P1;HPM_P2
2023/02/10 00:01:18;;;;;;;0.00;0.00;;;;;;;7.62;54.48;102845.53;7330839;19;20010;-59
2023/02/10 00:03:44;;;;;;;0.10;0.10;;;;;;;7.57;55.37;102857.53;7346093;19;20103;-59
2023/02/10 00:06:10;;;;;;;0.10;0.10;;;;;;;7.54;56.01;102854.84;7350185;19;20024;-60
2023/02/10 00:08:36;;;;;;;0.00;0.00;;;;;;;7.51;55.83;102852.19;7351185;19;20002;-60
2023/02/10 00:11:04;;;;;;;0.00;0.00;;;;;;;7.41;56.07;102848.47;7347860;19;21633;-60
2023/02/10 00:13:31;;;;;;;0.10;0.10;;;;;;;7.47;55.76;102865.94;7354794;19;20015;-60
2023/02/10 00:16:00;;;;;;;0.00;0.00;;;;;;;7.37;55.84;102862.25;7355610;19;20032;-60
2023/02/10 00:18:27;;;;;;;0.00;0.00;;;;;;;7.38;56.02;102869.19;7354943;19;20031;-60
2023/02/10 00:20:52;;;;;;;0.00;0.00;;;;;;;7.25;55.92;102843.75;7353365;19;20030;-58
2023/02/10 00:23:18;;;;;;;0.00;0.00;;;;;;;7.27;56.23;102839.47;7356128;19;20025;-58
2023/02/10 00:25:43;;;;;;;0.00;0.00;;;;;;;7.33;56.03;102852.59;7354055;19;20896;-59
2023/02/10 00:28:09;;;;;;;0.10;0.10;;;;;;;7.28;56.02;102841.22;7354880;19;20011;-60
2023/02/10 00:30:34;;;;;;;0.00;0.00;;;;;;;7.14;56.32;102814.00;7356251;19;21261;-59
2023/02/10 00:33:00;;;;;;;0.10;0.10;;;;;;;7.17;56.15;102822.75;7354694;19;20012;-60
2023/02/10 00:35:25;;;;;;;0.10;0.10;;;;;;;7.10;56.40;102812.19;7354001;19;20002;-58
2023/02/10 00:37:51;;;;;;;0.10;0.10;;;;;;;7.26;56.38;102841.19;7356010;19;20026;-59
2023/02/10 00:40:17;;;;;;;0.10;0.10;;;;;;;7.25;56.54;102841.16;7351969;19;20472;-59
2023/02/10 00:42:42;;;;;;;0.00;0.00;;;;;;;7.26;56.65;102837.72;7357552;19;20015;-60
2023/02/10 00:45:08;;;;;;;0.10;0.10;;;;;;;7.18;57.03;102813.22;7350390;19;20003;-60
2023/02/10 00:47:34;;;;;;;0.00;0.00;;;;;;;7.19;56.90;102810.66;7357409;19;20021;-60
2023/02/10 00:50:00;;;;;;;0.00;0.00;;;;;;;7.19;57.14;102807.19;7355519;19;20010;-60
2023/02/10 00:52:26;;;;;;;0.00;0.00;;;;;;;7.14;56.94;102791.47;7354115;19;20042;-59
2023/02/10 00:54:51;;;;;;;0.10;0.10;;;;;;;7.22;57.03;102807.28;7353198;19;20730;-60
2023/02/10 00:57:17;;;;;;;0.10;0.10;;;;;;;7.24;57.09;102815.97;7352985;19;20010;-59
2023/02/10 00:59:42;;;;;;;0.00;0.00;;;;;;;7.26;56.95;102814.31;7357353;19;20013;-60
2023/02/10 01:02:08;;;;;;;0.10;0.10;;;;;;;7.27;56.60;102808.28;7352787;19;20027;-60
2023/02/10 01:04:34;;;;;;;0.00;0.00;;;;;;;7.35;56.98;102808.44;7353054;19;20017;-60
2023/02/10 01:06:59;;;;;;;0.10;0.10;;;;;;;7.30;57.05;102803.16;7350737;19;20014;-58
2023/02/10 01:09:25;;;;;;;0.08;0.08;;;;;;;7.32;56.99;102798.88;7356878;19;20037;-60
2023/02/10 01:11:50;;;;;;;0.00;0.00;;;;;;;7.36;56.84;102794.63;7351586;19;20019;-60
2023/02/10 01:14:16;;;;;;;0.00;0.00;;;;;;;7.41;57.08;102801.69;7354333;19;20050;-60
2023/02/10 01:16:42;;;;;;;0.00;0.00;;;;;;;7.41;57.07;102801.69;7353711;19;20013;-60
2023/02/10 01:19:08;;;;;;;0.00;0.00;;;;;;;7.41;57.15;102799.09;7355064;19;20002;-60
2023/02/10 01:21:33;;;;;;;0.10;0.10;;;;;;;7.43;56.93;102797.41;7354274;19;20043;-60
2023/02/10 01:23:59;;;;;;;0.00;0.00;;;;;;;7.41;57.24;102793.03;7355165;19;20031;-59
2023/02/10 01:26:25;;;;;;;0.00;0.00;;;;;;;7.44;56.93;102803.47;7350770;19;20010;-60
2023/02/10 01:28:50;;;;;;;0.10;0.10;;;;;;;7.25;57.01;102771.00;7356350;19;20016;-60
2023/02/10 01:31:20;;;;;;;0.00;0.00;;;;;;;7.34;57.22;102768.59;7350435;19;20070;-59
2023/02/10 01:33:49;;;;;;;0.00;0.00;;;;;;;7.42;57.34;102777.44;7350249;19;20006;-60
2023/02/10 01:36:17;;;;;;;0.10;0.10;;;;;;;7.43;56.80;102776.59;7353480;19;20026;-59
2023/02/10 01:38:45;;;;;;;0.10;0.10;;;;;;;7.41;57.02;102765.31;7350662;19;20754;-60
2023/02/10 01:41:13;;;;;;;0.10;0.10;;;;;;;7.41;57.18;102765.31;7354590;19;20011;-59
2023/02/10 01:43:59;;;;;;;0.00;0.00;;;;;;;7.44;56.71;102760.16;7349193;19;20526;-59
2023/02/10 01:46:26;;;;;;;0.00;0.00;;;;;;;7.42;57.07;102743.66;7331132;19;20806;-59
2023/02/10 01:48:52;;;;;;;0.05;0.05;;;;;;;7.31;57.21;102726.06;7339297;19;20033;-59
2023/02/10 01:51:21;;;;;;;0.05;0.05;;;;;;;7.41;57.58;102739.31;7332731;19;20031;-60
2023/02/10 01:53:47;;;;;;;0.00;0.00;;;;;;;7.33;57.06;102730.44;7337449;19;20021;-60
2023/02/10 01:56:15;;;;;;;0.00;0.00;;;;;;;7.28;57.57;102712.16;7330741;19;20006;-60
2023/02/10 01:58:41;;;;;;;0.10;0.10;;;;;;;7.41;57.59;102735.84;7343365;19;20081;-59
2023/02/10 02:01:07;;;;;;;0.00;0.00;;;;;;;7.44;57.29;102739.38;7353475;19;22203;-58
2023/02/10 02:03:33;;;;;;;0.00;0.00;;;;;;;7.41;57.47;102736.72;7353604;19;20551;-60
2023/02/10 02:05:58;;;;;;;0.08;0.08;;;;;;;7.36;57.53;102720.13;7351016;19;20021;-60
2023/02/10 02:08:27;;;;;;;0.00;0.00;;;;;;;7.47;57.43;102739.44;7354739;19;20864;-60
2023/02/10 02:11:17;;;;;;;0.10;0.10;;;;;;;7.50;57.50;102729.13;7352707;19;20478;-59
2023/02/10 02:13:56;;;;;;;0.00;0.00;;;;;;;7.49;57.53;102727.34;7353252;19;20122;-59
2023/02/10 02:16:45;;;;;;;0.00;0.00;;;;;;;7.44;57.40;102715.97;7350068;19;20027;-59
2023/02/10 02:19:48;;;;;;;0.00;0.00;;;;;;;7.58;57.19;102731.00;7354794;19;20006;-60
2023/02/10 02:22:32;;;;;;;0.10;0.10;;;;;;;7.58;57.57;102720.63;7253457;19;2004375;-60
2023/02/10 02:25:16;;;;;;;0.00;0.00;;;;;;;7.57;57.16;102709.34;7352620;19;20853;-60
2023/02/10 02:28:11;;;;;;;0.00;0.00;;;;;;;7.22;57.01;102639.25;7354246;19;20094;-60
2023/02/10 02:30:55;;;;;;;0.00;0.00;;;;;;;7.61;57.61;102702.50;7251696;19;2004323;-60
2023/02/10 02:33:48;;;;;;;0.00;0.00;;;;;;;7.62;57.12;102701.63;7351060;19;20017;-60
2023/02/10 02:36:19;;;;;;;0.10;0.10;;;;;;;7.60;57.60;102703.31;7247482;19;2004386;-60
2023/02/10 02:38:44;;;;;;;0.10;0.10;;;;;;;7.60;57.84;102706.78;7354053;19;20214;-58
2023/02/10 02:41:10;;;;;;;0.10;0.10;;;;;;;7.63;57.84;102700.78;7352705;19;20014;-60
2023/02/10 02:43:38;;;;;;;0.00;0.00;;;;;;;7.53;58.01;102676.31;7350881;19;20865;-59
2023/02/10 02:46:09;;;;;;;;;;;;;;;7.68;57.23;102693.97;7355099;19;20082;-60
2023/02/10 02:49:02;;;;;;;0.00;0.00;;;;;;;7.68;57.75;102686.16;7352076;19;19960;-60
2023/02/10 02:51:27;;;;;;;0.00;0.00;;;;;;;7.67;57.93;102690.50;7352052;19;20007;-60
2023/02/10 02:54:00;;;;;;;0.10;0.10;;;;;;;7.70;57.75;102684.47;7352692;19;23818;-59
2023/02/10 02:56:28;;;;;;;0.00;0.00;;;;;;;7.69;57.87;102687.91;7353948;19;20900;-60
2023/02/10 02:59:17;;;;;;;0.10;0.10;;;;;;;7.66;58.06;102683.53;7345280;19;20891;-60
2023/02/10 03:01:52;;;;;;;0.00;0.00;;;;;;;7.72;57.83;102682.78;7357265;19;20018;-58
2023/02/10 03:04:18;;;;;;;0.10;0.10;;;;;;;7.69;57.99;102680.09;7361021;19;20018;-59
2023/02/10 03:06:44;;;;;;;0.00;0.00;;;;;;;7.68;58.21;102675.75;7357041;19;20026;-60
2023/02/10 03:09:10;;;;;;;0.00;0.00;;;;;;;7.67;57.78;102679.22;7360229;19;20027;-60
2023/02/10 03:11:35;;;;;;;0.00;0.00;;;;;;;7.75;58.40;102688.03;7358474;19;20022;-60
2023/02/10 03:14:01;;;;;;;0.00;0.00;;;;;;;7.76;58.07;102685.47;7360386;19;20781;-61
2023/02/10 03:16:26;;;;;;;0.05;0.05;;;;;;;7.79;57.97;102684.66;7354008;19;20019;-60
2023/02/10 03:18:52;;;;;;;0.00;0.00;;;;;;;7.82;57.96;102679.53;7358399;19;20019;-60
2023/02/10 03:21:17;;;;;;;0.00;0.00;;;;;;;7.85;58.03;102684.78;7357495;19;22396;-59
2023/02/10 03:23:43;;;;;;;0.03;0.03;;;;;;;7.67;57.99;102637.59;7359771;19;20725;-61
2023/02/10 03:26:08;;;;;;;0.00;0.00;;;;;;;7.85;58.14;102674.38;7356573;19;20489;-60
2023/02/10 03:28:34;;;;;;;0.00;0.00;;;;;;;7.89;58.39;102681.41;7354407;19;20003;-61
2023/02/10 03:31:04;;;;;;;0.10;0.10;;;;;;;7.90;58.30;102672.75;7359540;19;20010;-61
2023/02/10 03:33:29;;;;;;;0.10;0.10;;;;;;;7.50;58.09;102604.34;7359522;19;20437;-58
2023/02/10 03:35:55;;;;;;;0.00;0.00;;;;;;;7.89;58.43;102665.78;7360667;19;22225;-60
2023/02/10 03:38:20;;;;;;;0.00;0.00;;;;;;;7.92;57.89;102655.44;7358656;19;20012;-60
2023/02/10 03:40:50;;;;;;;0.10;0.10;;;;;;;7.95;58.00;102649.41;7360223;19;20085;-60
2023/02/10 03:43:15;;;;;;;0.00;0.00;;;;;;;7.94;58.11;102658.94;7359525;19;20403;-59
2023/02/10 03:45:41;;;;;;;0.00;0.00;;;;;;;7.80;58.08;102634.38;7357868;19;20008;-61
2023/02/10 03:48:06;;;;;;;0.10;0.10;;;;;;;7.89;58.26;102649.31;7357171;19;20010;-60
2023/02/10 03:50:32;;;;;;;0.00;0.00;;;;;;;7.93;58.22;102654.59;7358955;19;20002;-61
2023/02/10 03:52:57;;;;;;;0.00;0.00;;;;;;;7.80;58.26;102623.97;7355834;19;20014;-61
2023/02/10 03:55:22;;;;;;;0.00;0.00;;;;;;;7.93;58.79;102641.59;7354136;19;20117;-60
2023/02/10 03:57:48;;;;;;;0.00;0.00;;;;;;;7.94;58.28;102632.06;7351377;19;20015;-60
2023/02/10 04:00:15;;;;;;;0.00;0.00;;;;;;;7.89;57.90;102628.50;7359428;19;20047;-61
2023/02/10 04:02:40;;;;;;;0.00;0.00;;;;;;;7.85;58.41;102611.94;7359230;19;20090;-61
2023/02/10 04:05:06;;;;;;;0.00;0.00;;;;;;;7.80;58.40;102600.56;7343218;19;20010;-61
2023/02/10 04:07:32;;;;;;;0.00;0.00;;;;;;;7.82;58.03;102601.50;7358176;19;20006;-60
2023/02/10 04:09:57;;;;;;;0.00;0.00;;;;;;;7.99;58.73;102628.69;7361508;19;20038;-59
2023/02/10 04:12:22;;;;;;;0.10;0.10;;;;;;;8.02;58.45;102627.91;7354422;19;20483;-61
2023/02/10 04:14:48;;;;;;;0.00;0.00;;;;;;;7.92;58.95;102597.34;7360582;19;20352;-61
2023/02/10 04:17:13;;;;;;;0.10;0.10;;;;;;;8.04;58.52;102607.97;7359518;19;20027;-61
2023/02/10 04:19:39;;;;;;;0.00;0.00;;;;;;;8.04;58.59;102611.44;7341905;19;20018;-60
2023/02/10 04:22:04;;;;;;;0.00;0.00;;;;;;;8.03;59.04;102609.69;7359011;19;20030;-61
2023/02/10 04:24:30;;;;;;;0.00;0.00;;;;;;;8.00;58.83;102596.63;7353791;19;20404;-60
2023/02/10 04:26:55;;;;;;;0.00;0.00;;;;;;;8.09;59.19;102600.25;7356217;19;20652;-60
2023/02/10 04:29:21;;;;;;;0.00;0.00;;;;;;;8.07;59.07;102593.31;7360129;19;20030;-61
2023/02/10 04:31:47;;;;;;;0.00;0.00;;;;;;;8.09;58.71;102605.47;7357222;19;20986;-60
2023/02/10 04:34:12;;;;;;;0.00;0.00;;;;;;;8.12;58.95;102598.59;7360327;19;20027;-60
2023/02/10 04:36:38;;;;;;;0.00;0.00;;;;;;;8.14;58.94;102596.00;7358752;19;20019;-60
2023/02/10 04:39:03;;;;;;;0.10;0.10;;;;;;;8.15;59.45;102600.34;7359212;19;20467;-60
2023/02/10 04:41:28;;;;;;;0.00;0.00;;;;;;;8.17;58.96;102599.56;7359424;19;20011;-61
2023/02/10 04:43:54;;;;;;;0.10;0.10;;;;;;;8.01;59.07;102576.72;7359176;19;20010;-60
2023/02/10 04:46:20;;;;;;;0.00;0.00;;;;;;;8.19;59.55;102599.56;7357218;19;20034;-60
2023/02/10 04:48:45;;;;;;;0.10;0.10;;;;;;;8.18;59.46;102600.41;7358261;19;20014;-58
2023/02/10 04:51:11;;;;;;;0.00;0.00;;;;;;;8.24;59.34;102597.91;7356920;19;20014;-61
2023/02/10 04:53:39;;;;;;;0.00;0.00;;;;;;;8.25;59.47;102592.72;7357362;19;20015;-61
2023/02/10 04:56:05;;;;;;;0.10;0.10;;;;;;;8.27;59.38;102585.84;7358664;19;20018;-60
2023/02/10 04:58:31;;;;;;;0.00;0.00;;;;;;;8.29;59.25;102591.94;7359913;19;20133;-60
2023/02/10 05:00:57;;;;;;;0.00;0.00;;;;;;;8.31;59.89;102586.75;7365177;19;20792;-61
2023/02/10 05:03:23;;;;;;;0.00;0.00;;;;;;;8.29;59.27;102580.66;7365046;19;20018;-61
2023/02/10 05:05:48;;;;;;;0.00;0.00;;;;;;;8.32;59.81;102584.19;7364800;19;20042;-60
2023/02/10 05:08:14;;;;;;;0.00;0.00;;;;;;;8.35;59.94;102587.69;7364866;19;20026;-61
2023/02/10 05:10:40;;;;;;;0.05;0.05;;;;;;;8.25;60.06;102565.84;7363898;19;20010;-60
2023/02/10 05:13:05;;;;;;;0.03;0.03;;;;;;;8.39;60.45;102585.19;7366470;19;20468;-60
2023/02/10 05:15:31;;;;;;;0.00;0.00;;;;;;;8.36;60.01;102572.13;7361129;19;20014;-60
2023/02/10 05:17:56;;;;;;;0.00;0.00;;;;;;;8.28;60.19;102558.97;7363842;19;20089;-60
2023/02/10 05:20:21;;;;;;;0.00;0.00;;;;;;;8.39;59.84;102585.19;7363837;19;20003;-60
2023/02/10 05:22:47;;;;;;;0.00;0.00;;;;;;;8.44;60.28;102577.47;7363814;19;20014;-61
2023/02/10 05:25:12;;;;;;;0.03;0.03;;;;;;;8.45;60.53;102577.47;7362629;19;20050;-60
2023/02/10 05:27:38;;;;;;;0.00;0.00;;;;;;;8.47;60.54;102578.41;7365194;19;20010;-60
2023/02/10 05:30:06;;;;;;;0.00;0.00;;;;;;;8.49;60.51;102581.88;7364031;19;20022;-60
2023/02/10 05:32:32;;;;;;;0.00;0.00;;;;;;;8.46;59.89;102579.22;7366065;19;20015;-61
2023/02/10 05:34:57;;;;;;;0.10;0.10;;;;;;;8.38;60.69;102557.41;7362286;19;20025;-61
2023/02/10 05:37:23;;;;;;;0.00;0.00;;;;;;;8.41;60.73;102557.44;7364483;19;20014;-61
2023/02/10 05:39:48;;;;;;;0.00;0.00;;;;;;;8.53;60.51;102570.69;7362762;19;20006;-60
2023/02/10 05:42:14;;;;;;;0.00;0.00;;;;;;;8.47;60.35;102567.97;7365489;19;20044;-61
2023/02/10 05:44:40;;;;;;;0.00;0.00;;;;;;;8.58;60.47;102582.03;7364014;19;20085;-60
2023/02/10 05:47:05;;;;;;;0.00;0.00;;;;;;;8.62;60.29;102576.84;7362493;19;20032;-61
2023/02/10 05:49:30;;;;;;;0.10;0.10;;;;;;;8.41;61.26;102528.81;7365420;19;20021;-59
2023/02/10 05:51:56;;;;;;;0.00;0.00;;;;;;;8.62;61.15;102576.84;7363560;19;20011;-60
2023/02/10 05:54:21;;;;;;;0.00;0.00;;;;;;;8.51;61.20;102548.94;7363166;19;20017;-61
2023/02/10 05:56:49;;;;;;;0.00;0.00;;;;;;;8.67;60.43;102585.63;7365024;19;20543;-60
2023/02/10 05:59:15;;;;;;;0.10;0.10;;;;;;;8.64;61.47;102564.75;7362862;19;20006;-60
2023/02/10 06:01:40;;;;;;;0.00;0.00;;;;;;;8.61;61.60;102554.28;7364649;19;20363;-61
2023/02/10 06:04:06;;;;;;;0.10;0.10;;;;;;;8.69;61.24;102571.78;7362906;19;20007;-60
2023/02/10 06:06:31;;;;;;;0.00;0.00;;;;;;;8.71;62.22;102566.59;7361251;19;20003;-60
2023/02/10 06:08:57;;;;;;;0.10;0.10;;;;;;;8.72;61.83;102558.81;7361730;19;20021;-60
2023/02/10 06:11:22;;;;;;;0.10;0.10;;;;;;;8.71;61.64;102550.97;7362781;19;20696;-60
2023/02/10 06:13:47;;;;;;;0.00;0.00;;;;;;;8.77;61.63;102562.38;7364857;19;20027;-61
2023/02/10 06:16:13;;;;;;;0.10;0.10;;;;;;;8.78;62.86;102571.06;7361362;19;20094;-61
2023/02/10 06:18:38;;;;;;;0.03;0.03;;;;;;;8.67;62.38;102534.44;7363436;19;20019;-59
2023/02/10 06:21:04;;;;;;;0.00;0.00;;;;;;;8.82;61.95;102565.91;7361810;19;20478;-60
2023/02/10 06:23:29;;;;;;;0.10;0.10;;;;;;;8.70;62.56;102538.81;7360753;19;20463;-60
2023/02/10 06:25:56;;;;;;;0.10;0.10;;;;;;;8.78;62.29;102563.25;7360767;19;20006;-59
2023/02/10 06:28:23;;;;;;;0.00;0.00;;;;;;;8.89;62.96;102574.69;7362266;19;19998;-60
2023/02/10 06:30:48;;;;;;;0.00;0.00;;;;;;;8.87;62.60;102565.97;7360868;19;20007;-61
2023/02/10 06:33:14;;;;;;;0.00;0.00;;;;;;;8.92;63.27;102559.09;7361968;19;20002;-61
2023/02/10 06:35:39;;;;;;;0.00;0.00;;;;;;;8.94;62.72;102578.22;7361880;19;20026;-61
2023/02/10 06:38:04;;;;;;;0.00;0.00;;;;;;;8.97;62.98;102565.25;7364361;19;20014;-61
2023/02/10 06:40:30;;;;;;;0.00;0.00;;;;;;;8.94;63.45;102554.78;7362961;19;20035;-61
2023/02/10 06:42:55;;;;;;;0.00;0.00;;;;;;;8.98;63.60;102555.72;7363252;19;20018;-61
2023/02/10 06:45:21;;;;;;;0.00;0.00;;;;;;;9.00;63.67;102560.06;7360569;19;20027;-61
2023/02/10 06:47:46;;;;;;;0.10;0.10;;;;;;;9.05;63.33;102576.66;7363399;19;20006;-61
2023/02/10 06:50:13;;;;;;;0.00;0.00;;;;;;;8.95;63.66;102551.31;7362289;19;20014;-60
2023/02/10 06:52:39;;;;;;;0.05;0.05;;;;;;;8.94;63.51;102544.34;7363359;19;20015;-60
2023/02/10 06:55:07;;;;;;;0.10;0.10;;;;;;;9.05;63.80;102558.41;7361719;19;20013;-61
2023/02/10 06:57:35;;;;;;;0.00;0.00;;;;;;;9.14;63.86;102567.22;7359243;19;20010;-60
2023/02/10 07:00:02;;;;;;;0.00;0.00;;;;;;;9.15;64.18;102563.75;7356559;19;20050;-61
2023/02/10 07:02:29;;;;;;;0.00;0.00;;;;;;;9.15;63.61;102564.63;7360414;19;20048;-61
2023/02/10 07:04:54;;;;;;;0.08;0.08;;;;;;;9.18;63.90;102575.09;7356835;19;20014;-60
2023/02/10 07:07:20;;;;;;;0.03;0.03;;;;;;;9.19;64.46;102571.63;7360177;19;20002;-61
2023/02/10 07:09:45;;;;;;;0.00;0.00;;;;;;;9.21;64.08;102574.25;7360456;19;20017;-60
2023/02/10 07:12:11;;;;;;;0.05;0.05;;;;;;;9.24;64.14;102569.94;7359422;19;20003;-59
2023/02/10 07:14:38;;;;;;;0.00;0.00;;;;;;;9.22;64.67;102566.44;7358525;19;20018;-60
2023/02/10 07:17:04;;;;;;;0.08;0.08;;;;;;;9.26;64.60;102568.22;7362433;19;20791;-60
2023/02/10 07:19:30;;;;;;;0.00;0.00;;;;;;;9.29;63.80;102578.72;7361079;19;20010;-61
2023/02/10 07:21:56;;;;;;;0.00;0.00;;;;;;;9.31;64.16;102582.19;7360750;19;20026;-61
2023/02/10 07:24:21;;;;;;;0.00;0.00;;;;;;;9.32;64.28;102572.63;7358928;19;20021;-60
2023/02/10 07:26:46;;;;;;;0.00;0.00;;;;;;;9.35;65.06;102583.13;7358638;19;20058;-61
2023/02/10 07:29:12;;;;;;;0.00;0.00;;;;;;;9.38;65.13;102597.91;7358882;19;20019;-60
2023/02/10 07:31:37;;;;;;;0.10;0.10;;;;;;;9.20;65.16;102573.38;7357690;19;20036;-60
2023/02/10 07:34:03;;;;;;;0.10;0.10;;;;;;;9.42;64.88;102587.53;7360247;19;20047;-61
2023/02/10 07:36:28;;;;;;;0.05;0.05;;;;;;;9.33;64.82;102571.81;7357631;19;25268;-61
2023/02/10 07:38:54;;;;;;;0.05;0.05;;;;;;;9.45;64.50;102595.41;7356895;19;20086;-59
2023/02/10 07:41:20;;;;;;;0.10;0.10;;;;;;;9.46;65.22;102596.28;7360232;19;20482;-60
2023/02/10 07:43:45;;;;;;;0.00;0.00;;;;;;;9.46;64.88;102602.38;7360794;19;20020;-60
2023/02/10 07:46:10;;;;;;;0.10;0.10;;;;;;;9.43;65.25;102597.13;7358287;19;20010;-61
2023/02/10 07:48:36;;;;;;;0.00;0.00;;;;;;;9.49;64.98;102601.56;7358760;19;20074;-61
2023/02/10 07:51:02;;;;;;;0.10;0.10;;;;;;;9.47;65.54;102598.91;7359365;19;20006;-61
2023/02/10 07:53:27;;;;;;;0.00;0.00;;;;;;;9.49;64.67;102599.81;7351949;19;20010;-60
2023/02/10 07:55:52;;;;;;;0.00;0.00;;;;;;;9.48;65.43;102595.47;7345396;19;20013;-60
2023/02/10 07:58:18;;;;;;;0.10;0.10;;;;;;;9.45;65.37;102584.09;7357982;19;20010;-60
2023/02/10 08:00:43;;;;;;;0.00;0.00;;;;;;;9.50;65.07;102598.06;7359219;19;20010;-60
2023/02/10 08:03:13;;;;;;;0.10;0.10;;;;;;;9.39;64.90;102577.09;7358953;19;20081;-61
2023/02/10 08:05:38;;;;;;;0.00;0.00;;;;;;;9.53;65.22;102609.44;7350589;19;20114;-60
2023/02/10 08:08:04;;;;;;;0.10;0.10;;;;;;;9.51;65.07;102595.47;7360777;19;20014;-61
2023/02/10 08:10:29;;;;;;;0.00;0.00;;;;;;;9.43;65.90;102575.38;7357720;19;20018;-61
2023/02/10 08:12:55;;;;;;;0.10;0.10;;;;;;;9.52;65.23;102596.34;7353407;19;20040;-60
2023/02/10 08:15:22;;;;;;;0.05;0.05;;;;;;;9.45;65.70;102587.59;7350503;19;20014;-60
2023/02/10 08:17:48;;;;;;;0.10;0.10;;;;;;;9.55;64.97;102596.41;7337934;19;20454;-60
2023/02/10 08:20:13;;;;;;;0.10;0.10;;;;;;;9.57;66.25;102605.97;7357454;19;20013;-61
2023/02/10 08:22:39;;;;;;;0.00;0.00;;;;;;;9.56;66.59;102601.63;7356154;19;20014;-60
2023/02/10 08:25:05;;;;;;;0.00;0.00;;;;;;;9.56;66.31;102591.19;7357860;19;20005;-61
2023/02/10 08:27:30;;;;;;;0.00;0.00;;;;;;;9.45;65.88;102566.72;7355191;19;20014;-61
2023/02/10 08:29:56;;;;;;;0.00;0.00;;;;;;;9.61;65.65;102597.34;7354232;19;20010;-60
2023/02/10 08:32:22;;;;;;;0.00;0.00;;;;;;;9.61;66.36;102601.69;7357298;19;20119;-61
2023/02/10 08:34:49;;;;;;;0.00;0.00;;;;;;;9.66;65.70;102609.56;7362211;19;20034;-59
2023/02/10 08:37:16;;;;;;;0.00;0.00;;;;;;;9.65;66.42;102607.81;7366472;19;20614;-61
2023/02/10 08:39:41;;;;;;;0.03;0.03;;;;;;;9.56;66.86;102616.41;7365321;19;20384;-60
2023/02/10 08:42:07;;;;;;;0.00;0.00;;;;;;;9.70;67.21;102627.00;7359471;19;20018;-60
2023/02/10 08:44:32;;;;;;;0.00;0.00;;;;;;;9.61;66.41;102613.00;7362766;19;20027;-59
2023/02/10 08:46:58;;;;;;;0.10;0.10;;;;;;;9.72;67.28;102630.50;7362614;19;20010;-60
2023/02/10 08:49:24;;;;;;;0.10;0.10;;;;;;;9.66;67.34;102615.66;7363894;19;20019;-61
2023/02/10 08:51:51;;;;;;;0.00;0.00;;;;;;;9.77;67.13;102634.91;7356598;19;20024;-59
2023/02/10 08:54:17;;;;;;;0.00;0.00;;;;;;;9.83;67.27;102645.44;7347432;19;20018;-60
2023/02/10 08:56:42;;;;;;;0.00;0.00;;;;;;;9.85;67.29;102648.06;7362508;19;20353;-60
2023/02/10 08:59:08;;;;;;;0.10;0.10;;;;;;;9.87;66.55;102643.72;7360038;19;20010;-60
2023/02/10 09:01:33;;;;;;;0.00;0.00;;;;;;;9.95;67.47;102649.91;7359974;19;20015;-60
2023/02/10 09:03:59;;;;;;;0.10;0.10;;;;;;;9.98;67.65;102655.16;7361089;19;20003;-60
2023/02/10 09:06:28;;;;;;;0.00;0.00;;;;;;;9.99;67.00;102651.72;7361018;19;20007;-61
2023/02/10 09:08:54;;;;;;;0.03;0.03;;;;;;;10.03;67.47;102658.69;7364817;19;20010;-61
2023/02/10 09:11:23;;;;;;;0.00;0.00;;;;;;;10.05;67.58;102646.53;7360159;19;20042;-61
2023/02/10 09:13:49;;;;;;;0.00;0.00;;;;;;;10.06;68.06;102647.41;7362085;19;20018;-61
2023/02/10 09:16:14;;;;;;;0.00;0.00;;;;;;;10.08;67.92;102659.59;7362106;19;21201;-60
2023/02/10 09:18:39;;;;;;;0.10;0.10;;;;;;;10.08;67.67;102650.91;7363406;19;20016;-60
2023/02/10 09:21:05;;;;;;;0.00;0.00;;;;;;;10.03;68.01;102624.75;7361459;19;20014;-60
2023/02/10 09:23:30;;;;;;;0.00;0.00;;;;;;;10.24;67.58;102655.50;7362534;19;20741;-61
2023/02/10 09:25:59;;;;;;;0.00;0.00;;;;;;;10.30;67.86;102647.72;7350469;19;20031;-60
2023/02/10 09:28:25;;;;;;;0.00;0.00;;;;;;;10.31;67.42;102646.84;7362177;19;20625;-61
2023/02/10 09:30:51;;;;;;;0.10;0.10;;;;;;;10.38;68.41;102646.03;7364208;19;25247;-61
2023/02/10 09:33:16;;;;;;;0.00;0.00;;;;;;;10.47;68.49;102655.69;7359559;19;20014;-59
2023/02/10 09:35:42;;;;;;;0.00;0.00;;;;;;;10.51;69.08;102652.25;7362468;19;21092;-61
2023/02/10 09:38:09;;;;;;;0.00;0.00;;;;;;;10.56;69.04;102658.38;7364823;19;20034;-61
2023/02/10 09:41:00;;;;;;;0.00;0.00;;;;;;;10.53;68.32;102641.81;7360589;19;20626;-59
2023/02/10 09:44:04;;;;;;;0.10;0.10;;;;;;;10.69;67.96;102653.25;7361915;19;20453;-60
2023/02/10 09:46:51;;;;;;;0.00;0.00;;;;;;;10.74;67.63;102656.78;7260115;19;2004595;-61
2023/02/10 09:49:45;;;;;;;0.10;0.10;;;;;;;10.59;67.70;102629.69;7363296;19;20014;-60
2023/02/10 09:52:31;;;;;;;0.10;0.10;;;;;;;10.80;68.52;102649.88;7259533;19;2004505;-60
2023/02/10 09:54:58;;;;;;;0.10;0.10;;;;;;;10.85;68.21;102642.06;7361424;19;20111;-60
2023/02/10 09:57:39;;;;;;;0.00;0.00;;;;;;;10.79;68.64;102626.31;7359343;19;20471;-61
2023/02/10 10:00:17;;;;;;;0.05;0.05;;;;;;;10.94;68.75;102651.69;7360569;19;20339;-61
2023/02/10 10:02:50;;;;;;;0.10;0.10;;;;;;;10.98;68.89;102654.34;7360063;19;20109;-60
2023/02/10 10:05:30;;;;;;;0.03;0.03;;;;;;;11.01;68.49;102638.69;7358777;19;20026;-59
2023/02/10 10:07:56;;;;;;;0.00;0.00;;;;;;;10.95;68.86;102632.53;7361407;19;20010;-60
2023/02/10 10:10:32;;;;;;;0.00;0.00;;;;;;;11.02;68.91;102632.59;7360548;19;20372;-59
2023/02/10 10:12:58;;;;;;;0.00;0.00;;;;;;;11.05;68.82;102630.00;7362876;19;20036;-60
2023/02/10 10:15:30;;;;;;;0.08;0.08;;;;;;;11.14;69.01;102640.50;7357317;19;20048;-61
2023/02/10 10:17:55;;;;;;;0.00;0.00;;;;;;;11.24;69.34;102635.34;7362815;19;20780;-61
2023/02/10 10:20:36;;;;;;;0.05;0.05;;;;;;;11.32;68.86;102638.88;7361864;19;20010;-61
2023/02/10 10:23:30;;;;;;;0.10;0.10;;;;;;;11.39;68.73;102640.66;7361876;19;20484;-61
2023/02/10 10:25:58;;;;;;;0.00;0.00;;;;;;;11.40;68.93;102645.91;7255995;19;2004160;-61
2023/02/10 10:28:33;;;;;;;0.10;0.10;;;;;;;11.40;69.07;102659.00;7361034;19;20021;-61
2023/02/10 10:31:28;;;;;;;0.00;0.00;;;;;;;11.41;68.51;102638.94;7362338;19;20014;-61
2023/02/10 10:34:05;;;;;;;0.00;0.00;;;;;;;11.38;68.95;102638.91;7260163;19;2006227;-60
2023/02/10 10:36:41;;;;;;;0.00;0.00;;;;;;;11.49;68.60;102639.81;7360669;19;20010;-61
2023/02/10 10:39:23;;;;;;;0.10;0.10;;;;;;;11.42;68.62;102627.59;7361553;19;20015;-61
2023/02/10 10:41:49;;;;;;;0.10;0.10;;;;;;;11.52;68.97;102647.69;7361055;19;20588;-61
2023/02/10 10:44:17;;;;;;;0.00;0.00;;;;;;;11.56;69.28;102649.47;7362102;19;20019;-60
2023/02/10 10:47:13;;;;;;;0.10;0.10;;;;;;;11.62;69.16;102654.72;7358012;19;20019;-59
2023/02/10 10:49:38;;;;;;;0.03;0.03;;;;;;;11.12;68.93;102561.19;7246122;19;2004468;-61
2023/02/10 10:52:27;;;;;;;0.10;0.10;;;;;;;11.72;68.49;102652.16;7352733;19;20015;-60
2023/02/10 10:54:53;;;;;;;0.10;0.10;;;;;;;11.69;69.32;102640.78;7352130;19;20129;-59
2023/02/10 10:57:19;;;;;;;0.00;0.00;;;;;;;11.64;68.94;102624.19;7353072;19;20890;-61
2023/02/10 10:59:58;;;;;;;0.00;0.00;;;;;;;11.69;69.04;102619.84;7361396;19;20014;-60
2023/02/10 11:02:24;;;;;;;0.00;0.00;;;;;;;11.82;69.35;102635.63;7357000;19;20036;-60
2023/02/10 11:05:16;;;;;;;0.00;0.00;;;;;;;11.95;68.82;102653.97;7357495;19;20017;-61
2023/02/10 11:07:41;;;;;;;0.05;0.05;;;;;;;11.97;69.46;102654.00;7257834;19;2004471;-61
2023/02/10 11:10:22;;;;;;;0.00;0.00;;;;;;;12.06;69.15;102655.75;7357752;19;20014;-61
2023/02/10 11:12:48;;;;;;;0.08;0.08;;;;;;;12.06;69.00;102640.91;7357567;19;20010;-60
2023/02/10 11:15:25;;;;;;;0.00;0.00;;;;;;;12.17;68.63;102647.06;7357168;19;20011;-60
2023/02/10 11:17:53;;;;;;;0.03;0.03;;;;;;;12.10;68.90;102642.66;7355884;19;20497;-61
2023/02/10 11:20:26;;;;;;;0.00;0.00;;;;;;;12.22;69.25;102646.22;7359731;19;20018;-61
2023/02/10 11:23:14;;;;;;;0.00;0.00;;;;;;;12.29;68.72;102647.97;7360370;19;20015;-60
2023/02/10 11:25:39;;;;;;;0.00;0.00;;;;;;;12.29;69.15;102643.59;7360742;19;20022;-61
2023/02/10 11:28:16;;;;;;;0.10;0.10;;;;;;;12.28;69.08;102636.59;7357623;19;21121;-59
2023/02/10 11:30:41;;;;;;;0.10;0.10;;;;;;;12.23;69.21;102629.63;7359604;19;20006;-60
2023/02/10 11:33:25;;;;;;;0.10;0.10;;;;;;;12.38;68.45;102642.72;7354710;19;22053;-60
2023/02/10 11:36:04;;;;;;;0.00;0.00;;;;;;;12.39;68.76;102644.47;7358568;19;20010;-60
2023/02/10 11:38:31;;;;;;;0.10;0.10;;;;;;;12.44;68.84;102654.09;7358903;19;20817;-60